createdAt,value
2019-04-16T00:09:14.969Z,10.50
2019-04-16T00:12:18.996Z,10.40
2019-04-16T00:15:13.550Z,10.40
2019-04-16T00:17:54.718Z,10.30
2019-04-16T00:20:46.418Z,10.30
2019-04-16T00:23:54.447Z,10.20
2019-04-16T00:27:05.047Z,10.20
2019-04-16T00:29:40.011Z,10.20
2019-04-16T00:32:42.685Z,10.10
2019-04-16T00:35:46.601Z,10.00
2019-04-16T00:38:58.959Z,10.00
2019-04-16T00:41:49.047Z,10.00
2019-04-16T00:44:21.899Z,9.90
2019-04-16T00:47:34.167Z,9.90
2019-04-16T00:50:11.563Z,9.80
2019-04-16T00:53:12.282Z,9.70
2019-04-16T00:56:17.616Z,9.70
2019-04-16T00:59:06.127Z,9.70
2019-04-16T01:02:05.777Z,9.70
2019-04-16T01:05:06.248Z,9.70
2019-04-16T01:07:57.433Z,9.60
2019-04-16T01:10:39.001Z,9.60
2019-04-16T01:13:29.630Z,9.50
2019-04-16T01:16:30.312Z,9.50
2019-04-16T01:19:41.020Z,9.50
2019-04-16T01:22:40.398Z,9.50
2019-04-16T01:28:43.446Z,9.40
2019-04-16T01:31:51.436Z,9.30
2019-04-16T01:34:51.562Z,9.30
2019-04-16T01:37:49.949Z,9.30
2019-04-16T01:40:58.547Z,9.20
2019-04-16T01:43:57.041Z,9.20
2019-04-16T01:46:57.288Z,9.20
2019-04-16T01:49:51.593Z,9.10
2019-04-16T01:52:36.797Z,9.10
2019-04-16T01:55:28.157Z,9.10
2019-04-16T01:58:26.162Z,9.00
2019-04-16T02:00:51.682Z,9.00
2019-04-16T02:03:39.786Z,9.00
2019-04-16T02:06:25.910Z,9.00
2019-04-16T02:09:03.259Z,9.00
2019-04-16T02:11:42.950Z,8.90
2019-04-16T02:14:28.282Z,8.90
2019-04-16T02:17:26.607Z,8.90
2019-04-16T02:20:12.573Z,8.80
2019-04-16T02:23:07.263Z,8.90
2019-04-16T02:25:51.355Z,8.90
2019-04-16T02:28:45.980Z,8.80
2019-04-16T02:31:52.588Z,8.80
2019-04-16T02:35:26.416Z,8.80
2019-04-16T02:37:48.299Z,8.80
2019-04-16T02:40:33.943Z,8.70
2019-04-16T02:43:12.820Z,8.70
2019-04-16T02:46:14.684Z,8.60
2019-04-16T02:49:04.066Z,8.60
2019-04-16T02:52:16.509Z,8.50
2019-04-16T02:55:19.012Z,8.40
2019-04-16T02:58:16.418Z,8.40
2019-04-16T03:01:23.487Z,8.30
2019-04-16T03:04:27.064Z,8.30
2019-04-16T03:07:09.333Z,8.20
2019-04-16T03:10:01.107Z,8.20
2019-04-16T03:12:36.158Z,8.20
2019-04-16T03:15:33.695Z,8.20
2019-04-16T03:18:25.595Z,8.10
2019-04-16T03:21:06.747Z,8.10
2019-04-16T03:23:58.627Z,8.00
2019-04-16T03:26:44.154Z,8.00
2019-04-16T03:29:38.832Z,7.90
2019-04-16T03:32:36.208Z,7.90
2019-04-16T03:35:51.058Z,7.90
2019-04-16T03:38:37.307Z,7.90
2019-04-16T03:41:24.924Z,7.80
2019-04-16T03:44:33.573Z,7.80
2019-04-16T03:47:18.818Z,7.80
2019-04-16T03:50:18.528Z,7.70
2019-04-16T03:53:06.612Z,7.60
2019-04-16T03:56:03.721Z,7.60
2019-04-16T03:58:43.658Z,7.60
2019-04-16T04:02:05.174Z,7.60
2019-04-16T04:04:52.642Z,7.50
2019-04-16T04:13:42.086Z,7.50
2019-04-16T04:20:20.613Z,7.40
2019-04-16T04:23:17.812Z,7.40
2019-04-16T04:26:41.420Z,7.40
2019-04-16T04:29:46.295Z,7.40
2019-04-16T04:32:25.951Z,7.40
2019-04-16T04:35:45.012Z,7.40
2019-04-16T04:38:38.260Z,7.40
2019-04-16T04:41:23.066Z,7.40
2019-04-16T04:48:02.899Z,7.40
2019-04-16T04:51:17.003Z,7.40
2019-04-16T04:54:22.044Z,7.40
2019-04-16T04:57:10.058Z,7.50
2019-04-16T05:00:37.432Z,7.40
2019-04-16T05:03:55.271Z,7.40
2019-04-16T05:06:58.583Z,7.50
2019-04-16T05:10:00.417Z,7.50
2019-04-16T05:13:10.387Z,7.50
2019-04-16T05:40:09.923Z,12.30
2019-04-16T05:43:00.384Z,12.70
2019-04-16T05:46:15.926Z,12.90
2019-04-16T05:52:19.802Z,13.70
2019-04-16T06:06:28.561Z,15.90
2019-04-16T06:09:25.734Z,16.60
2019-04-16T06:12:54.134Z,16.80
2019-04-16T06:16:11.843Z,16.70
2019-04-16T06:20:07.287Z,17.40
2019-04-16T06:23:34.298Z,17.70
2019-04-16T06:26:55.821Z,17.20
2019-04-16T06:30:11.426Z,18.00
2019-04-16T06:37:26.777Z,18.20
2019-04-16T06:40:50.475Z,18.00
2019-04-16T06:44:05.275Z,17.60
2019-04-16T06:47:52.179Z,18.20
2019-04-16T06:51:02.560Z,18.60
2019-04-16T06:54:31.615Z,18.40
2019-04-16T07:00:44.835Z,19.40
2019-04-16T07:03:48.509Z,19.70
2019-04-16T07:14:19.011Z,20.60
2019-04-16T07:17:20.976Z,21.40
2019-04-16T07:20:32.481Z,19.60
2019-04-16T07:24:04.453Z,18.50
2019-04-16T07:27:07.704Z,18.80
2019-04-16T07:30:14.428Z,19.80
2019-04-16T07:34:28.143Z,20.80
2019-04-16T07:37:38.702Z,21.60
2019-04-16T07:41:34.254Z,21.00
2019-04-16T07:45:05.713Z,21.30
2019-04-16T07:56:01.244Z,20.70
2019-04-16T07:59:25.431Z,21.00
2019-04-16T08:03:11.514Z,21.40
2019-04-16T08:06:49.499Z,21.20
2019-04-16T08:14:10.254Z,22.10
2019-04-16T08:24:42.940Z,22.30
2019-04-16T08:27:34.751Z,20.90
2019-04-16T08:31:12.221Z,21.40
2019-04-16T08:34:20.947Z,22.10
2019-04-16T08:41:21.098Z,23.50
2019-04-16T08:44:54.705Z,23.60
2019-04-16T08:48:37.186Z,23.90
2019-04-16T08:55:29.754Z,22.40
2019-04-16T09:02:01.538Z,21.40
2019-04-16T09:06:04.394Z,21.20
2019-04-16T09:09:47.580Z,22.50
2019-04-16T09:12:40.757Z,23.50
2019-04-16T09:15:48.479Z,23.20
2019-04-16T09:19:09.435Z,22.00
2019-04-16T09:26:57.896Z,23.10
2019-04-16T09:30:10.762Z,24.20
2019-04-16T09:33:51.192Z,24.10
2019-04-16T09:37:16.394Z,24.60
2019-04-16T09:41:08.733Z,24.40
2019-04-16T09:44:18.598Z,23.20
2019-04-16T09:47:36.133Z,22.90
2019-04-16T09:55:07.968Z,22.40
2019-04-16T09:58:42.543Z,22.30
2019-04-16T10:02:06.864Z,22.80
2019-04-16T10:08:56.668Z,22.80
2019-04-16T10:12:07.688Z,22.60
2019-04-16T10:18:35.997Z,20.90
2019-04-16T10:22:14.205Z,21.00
2019-04-16T10:25:37.002Z,21.10
2019-04-16T10:29:21.863Z,21.10
2019-04-16T10:37:02.619Z,21.00
2019-04-16T10:40:36.284Z,21.20
2019-04-16T10:51:26.414Z,21.10
2019-04-16T10:54:38.260Z,20.80
2019-04-16T10:55:03.109Z,20.40
2019-04-16T11:06:20.782Z,20.80
2019-04-16T11:10:11.666Z,21.30
2019-04-16T11:14:18.361Z,20.60
2019-04-16T11:21:18.649Z,20.10
2019-04-16T11:35:29.688Z,19.40
2019-04-16T11:38:38.727Z,19.90
2019-04-16T11:42:36.813Z,20.10
2019-04-16T11:50:22.424Z,20.20
2019-04-16T11:57:41.641Z,21.10
2019-04-16T12:01:23.262Z,21.60
2019-04-16T12:05:12.656Z,21.60
2019-04-16T12:12:45.184Z,21.20
2019-04-16T12:16:54.170Z,21.30
2019-04-16T12:20:05.055Z,21.10
2019-04-16T12:23:49.972Z,20.60
2019-04-16T12:27:49.973Z,20.80
2019-04-16T12:31:23.381Z,21.40
2019-04-16T12:42:47.913Z,21.30
2019-04-16T12:46:32.560Z,21.30
2019-04-16T12:49:53.961Z,21.10
2019-04-16T12:53:14.830Z,21.30
2019-04-16T12:57:02.839Z,21.40
2019-04-16T13:00:31.679Z,21.70
2019-04-16T13:19:59.408Z,21.00
2019-04-16T13:23:16.920Z,21.20
2019-04-16T13:26:55.778Z,21.00
2019-04-16T13:34:19.410Z,21.50
2019-04-16T13:41:09.663Z,21.30
2019-04-16T13:48:42.392Z,21.30
2019-04-16T14:00:39.287Z,21.00
2019-04-16T14:08:11.869Z,21.00
2019-04-16T14:11:58.690Z,21.10
2019-04-16T14:15:31.205Z,20.80
2019-04-16T14:47:38.057Z,20.90
2019-04-16T14:51:22.296Z,20.90
2019-04-16T15:02:55.138Z,21.10
2019-04-16T15:10:51.720Z,20.80
2019-04-16T15:14:47.805Z,20.80
2019-04-16T15:21:28.693Z,20.80
2019-04-16T15:29:11.120Z,20.70
2019-04-16T15:32:48.647Z,20.70
2019-04-16T15:36:24.745Z,20.60
2019-04-16T15:40:07.509Z,20.60
2019-04-16T15:43:27.548Z,20.50
2019-04-16T15:47:00.061Z,20.50
2019-04-16T15:50:35.695Z,20.60
2019-04-16T16:03:42.533Z,20.30
2019-04-16T16:07:32.449Z,20.30
2019-04-16T16:11:16.573Z,20.20
2019-04-16T16:14:38.726Z,20.00
2019-04-16T16:18:06.000Z,19.90
2019-04-16T16:21:19.120Z,19.90
2019-04-16T16:28:09.908Z,19.80
2019-04-16T16:31:35.954Z,19.70
2019-04-16T16:34:50.028Z,19.80
2019-04-16T16:38:39.801Z,19.80
2019-04-16T16:42:20.919Z,19.80
2019-04-16T16:54:08.228Z,19.60
2019-04-16T17:01:20.101Z,19.60
2019-04-16T17:19:01.620Z,19.60
2019-04-16T17:22:17.367Z,19.50
2019-04-16T17:25:50.267Z,19.60
2019-04-16T17:32:57.506Z,19.50
2019-04-16T17:36:19.573Z,19.20
2019-04-16T17:39:48.347Z,18.90
2019-04-16T17:58:53.383Z,18.10
2019-04-16T18:02:29.234Z,18.00
2019-04-16T18:06:42.905Z,18.00
2019-04-16T18:17:14.816Z,17.90
2019-04-16T18:20:32.324Z,17.70
2019-04-16T18:24:21.381Z,17.80
2019-04-16T18:27:34.846Z,17.80
2019-04-16T18:34:43.432Z,17.80
2019-04-16T18:38:34.924Z,17.70
2019-04-16T18:42:36.714Z,17.60
2019-04-16T18:46:15.041Z,17.30
2019-04-16T18:49:42.754Z,17.00
2019-04-16T18:52:55.930Z,16.80
2019-04-16T18:56:28.213Z,16.70
2019-04-16T19:00:21.760Z,16.80
2019-04-16T19:03:36.846Z,16.80
2019-04-16T19:06:52.531Z,17.00
2019-04-16T19:10:11.598Z,17.00
2019-04-16T19:13:51.973Z,17.00
2019-04-16T19:20:58.930Z,16.60
2019-04-16T19:28:20.142Z,16.00
2019-04-16T19:35:28.956Z,15.60
2019-04-16T19:38:57.215Z,15.50
2019-04-16T19:43:02.520Z,15.60
2019-04-16T19:46:52.656Z,15.70
2019-04-16T20:30:42.917Z,15.40
2019-04-16T20:34:01.834Z,15.40
2019-04-16T20:37:17.016Z,15.40
2019-04-16T20:40:36.024Z,15.40
2019-04-16T20:44:03.097Z,15.40
2019-04-16T20:47:08.719Z,15.40
2019-04-16T20:50:31.991Z,15.40
2019-04-16T20:54:13.981Z,15.30
2019-04-16T20:57:49.789Z,15.30
2019-04-16T21:00:49.134Z,15.30
2019-04-16T21:04:14.620Z,15.30
2019-04-16T21:10:45.471Z,15.20
2019-04-16T21:20:19.366Z,15.00
2019-04-16T21:23:16.065Z,15.00
2019-04-16T21:26:16.543Z,15.00
2019-04-16T21:29:50.415Z,14.90
2019-04-16T21:33:13.473Z,14.90
2019-04-16T21:36:36.910Z,14.80
2019-04-16T21:40:01.437Z,14.70
2019-04-16T21:43:12.935Z,14.70
2019-04-16T21:46:25.342Z,14.60
2019-04-16T21:49:39.149Z,14.70
2019-04-16T21:52:42.686Z,14.60
2019-04-16T21:55:32.812Z,14.50
2019-04-16T21:58:26.888Z,14.50
2019-04-16T22:01:51.440Z,14.50
2019-04-16T22:05:04.058Z,14.50
2019-04-16T22:07:58.255Z,14.50
2019-04-16T22:11:18.255Z,14.50
2019-04-16T22:18:12.816Z,14.50
2019-04-16T22:21:33.495Z,14.40
2019-04-16T22:24:37.187Z,14.40
2019-04-16T22:28:01.798Z,14.30
2019-04-16T22:31:23.701Z,14.30
2019-04-16T22:33:57.627Z,14.20
2019-04-16T22:37:09.825Z,14.20
2019-04-16T22:40:38.792Z,14.20
2019-04-16T22:43:50.106Z,14.10
2019-04-16T22:46:54.653Z,13.90
2019-04-16T22:50:16.256Z,13.80
2019-04-16T22:52:57.167Z,13.60
2019-04-16T22:56:00.633Z,13.60
2019-04-16T22:59:06.618Z,13.50
2019-04-16T23:02:32.028Z,13.40
2019-04-16T23:05:45.378Z,13.40
2019-04-16T23:09:01.750Z,13.40
2019-04-16T23:12:13.558Z,13.30
2019-04-16T23:15:19.508Z,13.20
2019-04-16T23:18:09.383Z,13.20
2019-04-16T23:21:11.583Z,13.10
2019-04-16T23:24:20.375Z,13.10
2019-04-16T23:27:20.470Z,13.10
2019-04-16T23:30:19.817Z,13.10
2019-04-16T23:33:02.019Z,13.10
2019-04-16T23:35:52.142Z,13.10
2019-04-16T23:39:06.912Z,13.00
2019-04-16T23:42:12.320Z,13.00
2019-04-16T23:56:17.715Z,12.90
2019-04-16T23:59:26.262Z,13.00
